sensor_id;sensor_type;location;lat;lon;timestamp;P1;durP1;ratioP1;P2;durP2;ratioP2
18102;SDS011;9178;51.120;6.192;2023-07-28T00:02:08;5.45;;;2.90;;
18102;SDS011;9178;51.120;6.192;2023-07-28T00:04:38;4.82;;;3.15;;
18102;SDS011;9178;51.120;6.192;2023-07-28T00:07:05;7.35;;;3.05;;
18102;SDS011;9178;51.120;6.192;2023-07-28T00:09:32;4.88;;;3.10;;
18102;SDS011;9178;51.120;6.192;2023-07-28T00:11:59;7.07;;;3.15;;
18102;SDS011;9178;51.120;6.192;2023-07-28T00:14:27;6.07;;;2.92;;
18102;SDS011;9178;51.120;6.192;2023-07-28T00:16:56;3.25;;;2.63;;
18102;SDS011;9178;51.120;6.192;2023-07-28T00:19:23;8.10;;;3.00;;
18102;SDS011;9178;51.120;6.192;2023-07-28T00:21:51;5.43;;;3.15;;
18102;SDS011;9178;51.120;6.192;2023-07-28T00:24:18;5.28;;;3.10;;
18102;SDS011;9178;51.120;6.192;2023-07-28T00:26:45;4.88;;;2.78;;
18102;SDS011;9178;51.120;6.192;2023-07-28T00:29:12;6.25;;;2.80;;
18102;SDS011;9178;51.120;6.192;2023-07-28T00:31:39;3.95;;;2.47;;
18102;SDS011;9178;51.120;6.192;2023-07-28T00:34:07;6.45;;;2.97;;
18102;SDS011;9178;51.120;6.192;2023-07-28T00:36:34;5.00;;;3.42;;
18102;SDS011;9178;51.120;6.192;2023-07-28T00:39:00;5.38;;;3.20;;
18102;SDS011;9178;51.120;6.192;2023-07-28T00:41:27;4.72;;;3.15;;
18102;SDS011;9178;51.120;6.192;2023-07-28T00:43:54;7.97;;;3.42;;
18102;SDS011;9178;51.120;6.192;2023-07-28T00:46:21;5.88;;;3.30;;
18102;SDS011;9178;51.120;6.192;2023-07-28T00:48:48;4.40;;;3.72;;
18102;SDS011;9178;51.120;6.192;2023-07-28T00:51:16;5.07;;;3.25;;
18102;SDS011;9178;51.120;6.192;2023-07-28T00:53:43;4.80;;;3.25;;
18102;SDS011;9178;51.120;6.192;2023-07-28T00:56:11;11.20;;;4.00;;
18102;SDS011;9178;51.120;6.192;2023-07-28T00:58:38;6.28;;;4.13;;
18102;SDS011;9178;51.120;6.192;2023-07-28T01:01:06;7.85;;;4.15;;
18102;SDS011;9178;51.120;6.192;2023-07-28T01:03:33;4.70;;;4.30;;
18102;SDS011;9178;51.120;6.192;2023-07-28T01:06:03;4.78;;;3.72;;
18102;SDS011;9178;51.120;6.192;2023-07-28T01:08:42;6.35;;;3.95;;
18102;SDS011;9178;51.120;6.192;2023-07-28T01:11:15;5.35;;;3.80;;
18102;SDS011;9178;51.120;6.192;2023-07-28T01:13:42;14.52;;;5.53;;
18102;SDS011;9178;51.120;6.192;2023-07-28T01:16:09;5.25;;;3.97;;
18102;SDS011;9178;51.120;6.192;2023-07-28T01:18:36;7.00;;;4.00;;
18102;SDS011;9178;51.120;6.192;2023-07-28T01:21:05;7.47;;;4.45;;
18102;SDS011;9178;51.120;6.192;2023-07-28T01:23:37;5.15;;;4.18;;
18102;SDS011;9178;51.120;6.192;2023-07-28T01:26:11;4.40;;;4.00;;
18102;SDS011;9178;51.120;6.192;2023-07-28T01:28:41;5.47;;;3.72;;
18102;SDS011;9178;51.120;6.192;2023-07-28T01:31:11;4.60;;;3.75;;
18102;SDS011;9178;51.120;6.192;2023-07-28T01:33:38;5.10;;;3.50;;
18102;SDS011;9178;51.120;6.192;2023-07-28T01:36:05;5.25;;;4.18;;
18102;SDS011;9178;51.120;6.192;2023-07-28T01:38:32;7.22;;;4.15;;
18102;SDS011;9178;51.120;6.192;2023-07-28T01:40:59;7.18;;;4.32;;
18102;SDS011;9178;51.120;6.192;2023-07-28T01:43:26;6.70;;;4.47;;
18102;SDS011;9178;51.120;6.192;2023-07-28T01:45:54;4.22;;;3.83;;
18102;SDS011;9178;51.120;6.192;2023-07-28T01:48:21;5.05;;;4.15;;
18102;SDS011;9178;51.120;6.192;2023-07-28T01:50:48;7.55;;;3.90;;
18102;SDS011;9178;51.120;6.192;2023-07-28T01:53:15;8.27;;;5.00;;
18102;SDS011;9178;51.120;6.192;2023-07-28T01:55:44;10.73;;;5.13;;
18102;SDS011;9178;51.120;6.192;2023-07-28T01:58:12;6.22;;;4.45;;
18102;SDS011;9178;51.120;6.192;2023-07-28T02:00:39;5.00;;;3.78;;
18102;SDS011;9178;51.120;6.192;2023-07-28T02:03:07;12.48;;;4.88;;
18102;SDS011;9178;51.120;6.192;2023-07-28T02:05:34;10.95;;;4.40;;
18102;SDS011;9178;51.120;6.192;2023-07-28T02:08:01;5.82;;;4.70;;
18102;SDS011;9178;51.120;6.192;2023-07-28T02:10:28;6.28;;;4.30;;
18102;SDS011;9178;51.120;6.192;2023-07-28T02:12:55;8.10;;;4.80;;
18102;SDS011;9178;51.120;6.192;2023-07-28T02:15:21;6.50;;;3.88;;
18102;SDS011;9178;51.120;6.192;2023-07-28T02:17:48;6.88;;;3.78;;
18102;SDS011;9178;51.120;6.192;2023-07-28T02:20:17;4.95;;;4.32;;
18102;SDS011;9178;51.120;6.192;2023-07-28T02:22:44;4.55;;;4.10;;
18102;SDS011;9178;51.120;6.192;2023-07-28T02:25:12;9.23;;;4.80;;
18102;SDS011;9178;51.120;6.192;2023-07-28T02:27:39;9.25;;;4.25;;
18102;SDS011;9178;51.120;6.192;2023-07-28T02:30:06;6.00;;;4.35;;
18102;SDS011;9178;51.120;6.192;2023-07-28T02:32:33;4.20;;;3.90;;
18102;SDS011;9178;51.120;6.192;2023-07-28T02:35:02;7.10;;;4.55;;
18102;SDS011;9178;51.120;6.192;2023-07-28T02:37:31;8.65;;;4.78;;
18102;SDS011;9178;51.120;6.192;2023-07-28T02:39:58;6.43;;;4.32;;
18102;SDS011;9178;51.120;6.192;2023-07-28T02:42:24;9.05;;;4.10;;
18102;SDS011;9178;51.120;6.192;2023-07-28T02:44:51;12.65;;;5.15;;
18102;SDS011;9178;51.120;6.192;2023-07-28T02:47:18;10.45;;;6.35;;
18102;SDS011;9178;51.120;6.192;2023-07-28T02:49:45;7.25;;;5.28;;
18102;SDS011;9178;51.120;6.192;2023-07-28T02:52:12;9.55;;;5.55;;
18102;SDS011;9178;51.120;6.192;2023-07-28T02:54:40;5.85;;;5.18;;
18102;SDS011;9178;51.120;6.192;2023-07-28T02:57:07;5.40;;;4.57;;
18102;SDS011;9178;51.120;6.192;2023-07-28T02:59:34;4.63;;;4.20;;
18102;SDS011;9178;51.120;6.192;2023-07-28T03:02:01;6.07;;;4.35;;
18102;SDS011;9178;51.120;6.192;2023-07-28T03:04:28;8.35;;;4.03;;
18102;SDS011;9178;51.120;6.192;2023-07-28T03:06:55;9.00;;;4.25;;
18102;SDS011;9178;51.120;6.192;2023-07-28T03:09:22;7.32;;;4.40;;
18102;SDS011;9178;51.120;6.192;2023-07-28T03:11:50;4.13;;;3.78;;
18102;SDS011;9178;51.120;6.192;2023-07-28T03:14:17;7.28;;;4.75;;
18102;SDS011;9178;51.120;6.192;2023-07-28T03:16:44;6.05;;;3.75;;
18102;SDS011;9178;51.120;6.192;2023-07-28T03:19:12;6.45;;;4.15;;
18102;SDS011;9178;51.120;6.192;2023-07-28T03:21:39;8.13;;;4.40;;
18102;SDS011;9178;51.120;6.192;2023-07-28T03:24:07;6.35;;;3.63;;
18102;SDS011;9178;51.120;6.192;2023-07-28T03:26:34;6.32;;;4.05;;
18102;SDS011;9178;51.120;6.192;2023-07-28T03:29:02;7.13;;;3.97;;
18102;SDS011;9178;51.120;6.192;2023-07-28T03:31:29;4.30;;;3.78;;
18102;SDS011;9178;51.120;6.192;2023-07-28T03:33:56;3.70;;;3.15;;
18102;SDS011;9178;51.120;6.192;2023-07-28T03:36:23;5.20;;;3.67;;
18102;SDS011;9178;51.120;6.192;2023-07-28T03:38:50;7.28;;;4.50;;
18102;SDS011;9178;51.120;6.192;2023-07-28T03:41:16;5.57;;;3.83;;
18102;SDS011;9178;51.120;6.192;2023-07-28T03:43:43;8.55;;;4.03;;
18102;SDS011;9178;51.120;6.192;2023-07-28T03:46:13;10.88;;;4.10;;
18102;SDS011;9178;51.120;6.192;2023-07-28T03:48:40;7.10;;;3.90;;
18102;SDS011;9178;51.120;6.192;2023-07-28T03:51:06;6.13;;;3.50;;
18102;SDS011;9178;51.120;6.192;2023-07-28T03:53:34;4.30;;;3.22;;
18102;SDS011;9178;51.120;6.192;2023-07-28T03:56:01;8.90;;;3.88;;
18102;SDS011;9178;51.120;6.192;2023-07-28T03:58:28;6.43;;;3.30;;
18102;SDS011;9178;51.120;6.192;2023-07-28T04:00:55;3.88;;;2.80;;
18102;SDS011;9178;51.120;6.192;2023-07-28T04:03:23;3.42;;;3.10;;
18102;SDS011;9178;51.120;6.192;2023-07-28T04:05:50;3.88;;;3.50;;
18102;SDS011;9178;51.120;6.192;2023-07-28T04:08:17;4.00;;;2.92;;
18102;SDS011;9178;51.120;6.192;2023-07-28T04:10:44;4.65;;;3.03;;
18102;SDS011;9178;51.120;6.192;2023-07-28T04:13:11;3.47;;;3.17;;
18102;SDS011;9178;51.120;6.192;2023-07-28T04:15:37;4.82;;;3.30;;
18102;SDS011;9178;51.120;6.192;2023-07-28T04:18:06;5.65;;;3.65;;
18102;SDS011;9178;51.120;6.192;2023-07-28T04:20:34;5.22;;;4.13;;
18102;SDS011;9178;51.120;6.192;2023-07-28T04:23:01;5.95;;;3.60;;
18102;SDS011;9178;51.120;6.192;2023-07-28T04:25:28;7.38;;;3.75;;
18102;SDS011;9178;51.120;6.192;2023-07-28T04:27:55;4.10;;;3.25;;
18102;SDS011;9178;51.120;6.192;2023-07-28T04:30:22;4.20;;;3.33;;
18102;SDS011;9178;51.120;6.192;2023-07-28T04:32:52;5.05;;;3.47;;
18102;SDS011;9178;51.120;6.192;2023-07-28T04:35:19;8.02;;;2.88;;
18102;SDS011;9178;51.120;6.192;2023-07-28T04:37:48;4.45;;;2.85;;
18102;SDS011;9178;51.120;6.192;2023-07-28T04:40:15;3.05;;;2.53;;
18102;SDS011;9178;51.120;6.192;2023-07-28T04:42:42;3.10;;;2.55;;
18102;SDS011;9178;51.120;6.192;2023-07-28T04:45:11;3.42;;;2.60;;
18102;SDS011;9178;51.120;6.192;2023-07-28T04:47:38;3.92;;;2.63;;
18102;SDS011;9178;51.120;6.192;2023-07-28T04:50:05;2.85;;;2.40;;
18102;SDS011;9178;51.120;6.192;2023-07-28T04:52:32;5.88;;;2.40;;
18102;SDS011;9178;51.120;6.192;2023-07-28T04:55:00;2.75;;;2.40;;
18102;SDS011;9178;51.120;6.192;2023-07-28T04:57:27;2.63;;;2.42;;
18102;SDS011;9178;51.120;6.192;2023-07-28T04:59:54;2.35;;;1.85;;
18102;SDS011;9178;51.120;6.192;2023-07-28T05:02:21;4.95;;;2.25;;
18102;SDS011;9178;51.120;6.192;2023-07-28T05:04:48;2.50;;;2.28;;
18102;SDS011;9178;51.120;6.192;2023-07-28T05:07:15;4.60;;;2.53;;
18102;SDS011;9178;51.120;6.192;2023-07-28T05:09:42;7.10;;;2.95;;
18102;SDS011;9178;51.120;6.192;2023-07-28T05:12:11;4.25;;;2.30;;
18102;SDS011;9178;51.120;6.192;2023-07-28T05:14:38;2.33;;;2.13;;
18102;SDS011;9178;51.120;6.192;2023-07-28T05:17:05;3.25;;;1.77;;
18102;SDS011;9178;51.120;6.192;2023-07-28T05:19:32;2.55;;;2.35;;
18102;SDS011;9178;51.120;6.192;2023-07-28T05:21:59;2.10;;;2.00;;
18102;SDS011;9178;51.120;6.192;2023-07-28T05:24:25;2.42;;;2.00;;
18102;SDS011;9178;51.120;6.192;2023-07-28T05:26:52;2.20;;;1.98;;
18102;SDS011;9178;51.120;6.192;2023-07-28T05:29:21;2.60;;;2.10;;
18102;SDS011;9178;51.120;6.192;2023-07-28T05:31:47;4.15;;;2.75;;
18102;SDS011;9178;51.120;6.192;2023-07-28T05:34:14;3.25;;;2.55;;
18102;SDS011;9178;51.120;6.192;2023-07-28T05:36:42;3.75;;;2.58;;
18102;SDS011;9178;51.120;6.192;2023-07-28T05:39:09;4.03;;;2.55;;
18102;SDS011;9178;51.120;6.192;2023-07-28T05:41:36;3.28;;;2.80;;
18102;SDS011;9178;51.120;6.192;2023-07-28T05:44:04;6.25;;;3.25;;
18102;SDS011;9178;51.120;6.192;2023-07-28T05:46:32;3.78;;;3.17;;
18102;SDS011;9178;51.120;6.192;2023-07-28T05:49:00;3.05;;;2.30;;
18102;SDS011;9178;51.120;6.192;2023-07-28T05:51:27;3.88;;;2.40;;
18102;SDS011;9178;51.120;6.192;2023-07-28T05:53:54;4.63;;;2.85;;
18102;SDS011;9178;51.120;6.192;2023-07-28T05:56:24;6.93;;;3.25;;
18102;SDS011;9178;51.120;6.192;2023-07-28T05:58:50;3.10;;;2.58;;
18102;SDS011;9178;51.120;6.192;2023-07-28T06:01:20;7.40;;;3.50;;
18102;SDS011;9178;51.120;6.192;2023-07-28T06:03:48;5.43;;;3.35;;
18102;SDS011;9178;51.120;6.192;2023-07-28T06:06:17;5.13;;;3.70;;
18102;SDS011;9178;51.120;6.192;2023-07-28T06:08:44;5.35;;;4.05;;
18102;SDS011;9178;51.120;6.192;2023-07-28T06:11:11;8.48;;;3.60;;
18102;SDS011;9178;51.120;6.192;2023-07-28T06:13:38;6.25;;;4.18;;
18102;SDS011;9178;51.120;6.192;2023-07-28T06:16:05;5.57;;;3.85;;
18102;SDS011;9178;51.120;6.192;2023-07-28T06:18:32;11.05;;;4.30;;
18102;SDS011;9178;51.120;6.192;2023-07-28T06:21:00;5.93;;;4.50;;
18102;SDS011;9178;51.120;6.192;2023-07-28T06:23:27;8.45;;;4.68;;
18102;SDS011;9178;51.120;6.192;2023-07-28T06:25:54;6.35;;;4.38;;
18102;SDS011;9178;51.120;6.192;2023-07-28T06:28:21;6.60;;;4.22;;
18102;SDS011;9178;51.120;6.192;2023-07-28T06:30:52;7.53;;;4.25;;
18102;SDS011;9178;51.120;6.192;2023-07-28T06:33:20;11.90;;;4.72;;
18102;SDS011;9178;51.120;6.192;2023-07-28T06:35:47;5.05;;;4.40;;
18102;SDS011;9178;51.120;6.192;2023-07-28T06:38:15;9.50;;;4.80;;
18102;SDS011;9178;51.120;6.192;2023-07-28T06:40:42;8.25;;;4.80;;
18102;SDS011;9178;51.120;6.192;2023-07-28T06:43:09;5.65;;;4.40;;
18102;SDS011;9178;51.120;6.192;2023-07-28T06:45:36;6.25;;;3.83;;
18102;SDS011;9178;51.120;6.192;2023-07-28T06:48:04;6.68;;;4.63;;
18102;SDS011;9178;51.120;6.192;2023-07-28T06:50:31;6.07;;;4.20;;
18102;SDS011;9178;51.120;6.192;2023-07-28T06:52:58;8.07;;;4.30;;
18102;SDS011;9178;51.120;6.192;2023-07-28T06:55:26;8.77;;;4.10;;
18102;SDS011;9178;51.120;6.192;2023-07-28T06:57:53;7.03;;;4.50;;
18102;SDS011;9178;51.120;6.192;2023-07-28T07:00:20;7.32;;;4.07;;
18102;SDS011;9178;51.120;6.192;2023-07-28T07:02:48;5.13;;;3.83;;
18102;SDS011;9178;51.120;6.192;2023-07-28T07:05:15;8.35;;;4.00;;
18102;SDS011;9178;51.120;6.192;2023-07-28T07:07:42;8.10;;;4.18;;
18102;SDS011;9178;51.120;6.192;2023-07-28T07:10:09;7.70;;;4.07;;
18102;SDS011;9178;51.120;6.192;2023-07-28T07:12:40;5.15;;;3.65;;
18102;SDS011;9178;51.120;6.192;2023-07-28T07:15:09;7.35;;;3.80;;
18102;SDS011;9178;51.120;6.192;2023-07-28T07:17:36;5.57;;;4.10;;
18102;SDS011;9178;51.120;6.192;2023-07-28T07:20:05;6.35;;;3.60;;
18102;SDS011;9178;51.120;6.192;2023-07-28T07:22:33;8.95;;;3.63;;
18102;SDS011;9178;51.120;6.192;2023-07-28T07:25:00;4.13;;;3.38;;
18102;SDS011;9178;51.120;6.192;2023-07-28T07:27:27;4.97;;;3.60;;
18102;SDS011;9178;51.120;6.192;2023-07-28T07:29:55;4.97;;;3.30;;
18102;SDS011;9178;51.120;6.192;2023-07-28T07:32:23;4.55;;;2.90;;
18102;SDS011;9178;51.120;6.192;2023-07-28T07:34:49;4.40;;;3.33;;
18102;SDS011;9178;51.120;6.192;2023-07-28T07:37:18;4.07;;;2.97;;
18102;SDS011;9178;51.120;6.192;2023-07-28T07:39:45;5.70;;;3.13;;
18102;SDS011;9178;51.120;6.192;2023-07-28T07:42:12;4.55;;;2.70;;
18102;SDS011;9178;51.120;6.192;2023-07-28T07:44:39;3.85;;;3.00;;
18102;SDS011;9178;51.120;6.192;2023-07-28T07:47:14;2.55;;;2.40;;
18102;SDS011;9178;51.120;6.192;2023-07-28T07:49:41;3.30;;;2.83;;
18102;SDS011;9178;51.120;6.192;2023-07-28T07:52:09;3.08;;;2.85;;
18102;SDS011;9178;51.120;6.192;2023-07-28T07:54:36;3.20;;;2.92;;
18102;SDS011;9178;51.120;6.192;2023-07-28T07:57:03;3.72;;;2.65;;
18102;SDS011;9178;51.120;6.192;2023-07-28T07:59:31;3.33;;;2.90;;
18102;SDS011;9178;51.120;6.192;2023-07-28T08:02:01;4.50;;;2.80;;
18102;SDS011;9178;51.120;6.192;2023-07-28T08:04:32;3.30;;;2.25;;
18102;SDS011;9178;51.120;6.192;2023-07-28T08:07:02;4.75;;;2.30;;
18102;SDS011;9178;51.120;6.192;2023-07-28T08:09:29;2.55;;;2.35;;
18102;SDS011;9178;51.120;6.192;2023-07-28T08:12:01;2.28;;;2.08;;
18102;SDS011;9178;51.120;6.192;2023-07-28T08:14:29;2.38;;;2.00;;
18102;SDS011;9178;51.120;6.192;2023-07-28T08:16:55;2.75;;;2.00;;
18102;SDS011;9178;51.120;6.192;2023-07-28T08:19:22;2.10;;;1.90;;
18102;SDS011;9178;51.120;6.192;2023-07-28T08:21:53;2.47;;;1.65;;
18102;SDS011;9178;51.120;6.192;2023-07-28T08:24:20;4.70;;;2.38;;
18102;SDS011;9178;51.120;6.192;2023-07-28T08:26:47;4.50;;;1.83;;
18102;SDS011;9178;51.120;6.192;2023-07-28T08:29:14;2.53;;;2.00;;
18102;SDS011;9178;51.120;6.192;2023-07-28T08:31:41;2.47;;;1.40;;
18102;SDS011;9178;51.120;6.192;2023-07-28T08:34:11;1.95;;;1.40;;
18102;SDS011;9178;51.120;6.192;2023-07-28T08:36:38;2.65;;;1.30;;
18102;SDS011;9178;51.120;6.192;2023-07-28T08:39:06;1.95;;;1.58;;
18102;SDS011;9178;51.120;6.192;2023-07-28T08:41:35;4.85;;;1.63;;
18102;SDS011;9178;51.120;6.192;2023-07-28T08:44:02;2.03;;;1.30;;
18102;SDS011;9178;51.120;6.192;2023-07-28T08:46:29;1.85;;;1.45;;
18102;SDS011;9178;51.120;6.192;2023-07-28T08:48:59;2.90;;;1.50;;
18102;SDS011;9178;51.120;6.192;2023-07-28T08:51:26;1.45;;;1.23;;
18102;SDS011;9178;51.120;6.192;2023-07-28T08:53:52;2.97;;;1.30;;
18102;SDS011;9178;51.120;6.192;2023-07-28T08:56:22;1.10;;;1.10;;
18102;SDS011;9178;51.120;6.192;2023-07-28T08:58:56;1.25;;;1.10;;
18102;SDS011;9178;51.120;6.192;2023-07-28T09:01:24;2.65;;;1.20;;
18102;SDS011;9178;51.120;6.192;2023-07-28T09:03:51;3.00;;;1.27;;
18102;SDS011;9178;51.120;6.192;2023-07-28T09:06:19;3.25;;;1.17;;
18102;SDS011;9178;51.120;6.192;2023-07-28T09:08:56;2.08;;;1.10;;
18102;SDS011;9178;51.120;6.192;2023-07-28T09:11:25;1.88;;;0.98;;
18102;SDS011;9178;51.120;6.192;2023-07-28T09:13:53;1.83;;;0.90;;
18102;SDS011;9178;51.120;6.192;2023-07-28T09:16:21;1.60;;;1.00;;
18102;SDS011;9178;51.120;6.192;2023-07-28T09:18:49;1.30;;;0.88;;
18102;SDS011;9178;51.120;6.192;2023-07-28T09:21:17;2.17;;;0.80;;
18102;SDS011;9178;51.120;6.192;2023-07-28T09:23:46;0.80;;;0.80;;
18102;SDS011;9178;51.120;6.192;2023-07-28T09:26:13;1.45;;;0.80;;
18102;SDS011;9178;51.120;6.192;2023-07-28T09:28:41;2.70;;;0.75;;
18102;SDS011;9178;51.120;6.192;2023-07-28T09:31:09;6.28;;;0.80;;
18102;SDS011;9178;51.120;6.192;2023-07-28T09:33:37;0.65;;;0.60;;
18102;SDS011;9178;51.120;6.192;2023-07-28T09:36:08;1.15;;;0.57;;
18102;SDS011;9178;51.120;6.192;2023-07-28T09:38:36;0.43;;;0.43;;
18102;SDS011;9178;51.120;6.192;2023-07-28T09:41:05;2.00;;;0.63;;
18102;SDS011;9178;51.120;6.192;2023-07-28T09:43:35;2.05;;;0.50;;
18102;SDS011;9178;51.120;6.192;2023-07-28T09:46:04;0.52;;;0.52;;
18102;SDS011;9178;51.120;6.192;2023-07-28T09:48:32;1.77;;;0.40;;
18102;SDS011;9178;51.120;6.192;2023-07-28T09:51:01;0.60;;;0.60;;
18102;SDS011;9178;51.120;6.192;2023-07-28T09:53:35;1.02;;;0.60;;
18102;SDS011;9178;51.120;6.192;2023-07-28T09:56:10;0.40;;;0.40;;
18102;SDS011;9178;51.120;6.192;2023-07-28T09:58:41;0.82;;;0.60;;
18102;SDS011;9178;51.120;6.192;2023-07-28T10:01:17;3.13;;;0.70;;
18102;SDS011;9178;51.120;6.192;2023-07-28T10:03:47;1.17;;;0.60;;
18102;SDS011;9178;51.120;6.192;2023-07-28T10:06:14;0.90;;;0.60;;
18102;SDS011;9178;51.120;6.192;2023-07-28T10:08:42;1.08;;;0.70;;
18102;SDS011;9178;51.120;6.192;2023-07-28T10:11:10;0.57;;;0.57;;
18102;SDS011;9178;51.120;6.192;2023-07-28T10:13:42;0.57;;;0.57;;
18102;SDS011;9178;51.120;6.192;2023-07-28T10:16:11;0.60;;;0.60;;
18102;SDS011;9178;51.120;6.192;2023-07-28T10:18:41;1.05;;;0.60;;
18102;SDS011;9178;51.120;6.192;2023-07-28T10:21:08;0.50;;;0.50;;
18102;SDS011;9178;51.120;6.192;2023-07-28T10:23:40;2.50;;;0.70;;
18102;SDS011;9178;51.120;6.192;2023-07-28T10:26:07;2.40;;;0.50;;
18102;SDS011;9178;51.120;6.192;2023-07-28T10:28:36;0.68;;;0.50;;
18102;SDS011;9178;51.120;6.192;2023-07-28T10:31:06;0.88;;;0.63;;
18102;SDS011;9178;51.120;6.192;2023-07-28T10:33:36;0.43;;;0.43;;
18102;SDS011;9178;51.120;6.192;2023-07-28T10:36:12;0.73;;;0.65;;
18102;SDS011;9178;51.120;6.192;2023-07-28T10:38:41;2.15;;;0.88;;
18102;SDS011;9178;51.120;6.192;2023-07-28T10:41:09;0.85;;;0.40;;
18102;SDS011;9178;51.120;6.192;2023-07-28T10:43:37;1.58;;;0.52;;
18102;SDS011;9178;51.120;6.192;2023-07-28T10:46:05;0.60;;;0.50;;
18102;SDS011;9178;51.120;6.192;2023-07-28T10:48:36;1.75;;;0.50;;
18102;SDS011;9178;51.120;6.192;2023-07-28T10:51:06;0.90;;;0.47;;
18102;SDS011;9178;51.120;6.192;2023-07-28T10:53:38;0.80;;;0.60;;
18102;SDS011;9178;51.120;6.192;2023-07-28T10:56:05;0.30;;;0.30;;
18102;SDS011;9178;51.120;6.192;2023-07-28T10:58:34;0.57;;;0.40;;
18102;SDS011;9178;51.120;6.192;2023-07-28T11:01:01;0.95;;;0.38;;
18102;SDS011;9178;51.120;6.192;2023-07-28T11:03:29;0.28;;;0.25;;
18102;SDS011;9178;51.120;6.192;2023-07-28T11:05:56;2.15;;;0.30;;
18102;SDS011;9178;51.120;6.192;2023-07-28T11:08:22;0.22;;;0.10;;
18102;SDS011;9178;51.120;6.192;2023-07-28T11:10:51;1.40;;;0.30;;
18102;SDS011;9178;51.120;6.192;2023-07-28T11:13:18;1.73;;;0.40;;
18102;SDS011;9178;51.120;6.192;2023-07-28T11:15:45;0.40;;;0.20;;
18102;SDS011;9178;51.120;6.192;2023-07-28T11:18:14;3.92;;;0.57;;
18102;SDS011;9178;51.120;6.192;2023-07-28T11:20:44;1.75;;;0.22;;
18102;SDS011;9178;51.120;6.192;2023-07-28T11:23:14;2.20;;;0.30;;
18102;SDS011;9178;51.120;6.192;2023-07-28T11:25:42;3.83;;;0.85;;
18102;SDS011;9178;51.120;6.192;2023-07-28T11:28:14;2.78;;;0.25;;
18102;SDS011;9178;51.120;6.192;2023-07-28T11:30:41;1.05;;;0.20;;
18102;SDS011;9178;51.120;6.192;2023-07-28T11:33:10;0.70;;;0.30;;
18102;SDS011;9178;51.120;6.192;2023-07-28T11:35:39;1.45;;;0.28;;
18102;SDS011;9178;51.120;6.192;2023-07-28T11:38:06;0.80;;;0.30;;
18102;SDS011;9178;51.120;6.192;2023-07-28T11:40:39;0.20;;;0.20;;
18102;SDS011;9178;51.120;6.192;2023-07-28T11:43:07;1.08;;;0.20;;
18102;SDS011;9178;51.120;6.192;2023-07-28T11:45:36;1.20;;;0.40;;
18102;SDS011;9178;51.120;6.192;2023-07-28T11:48:03;1.65;;;0.50;;
18102;SDS011;9178;51.120;6.192;2023-07-28T11:50:34;0.57;;;0.43;;
18102;SDS011;9178;51.120;6.192;2023-07-28T11:53:03;1.00;;;0.60;;
18102;SDS011;9178;51.120;6.192;2023-07-28T11:55:31;0.45;;;0.40;;
18102;SDS011;9178;51.120;6.192;2023-07-28T11:57:59;1.85;;;0.50;;
18102;SDS011;9178;51.120;6.192;2023-07-28T12:00:29;1.52;;;0.50;;
18102;SDS011;9178;51.120;6.192;2023-07-28T12:03:07;0.50;;;0.50;;
18102;SDS011;9178;51.120;6.192;2023-07-28T12:05:35;2.38;;;0.60;;
18102;SDS011;9178;51.120;6.192;2023-07-28T12:08:04;0.65;;;0.43;;
18102;SDS011;9178;51.120;6.192;2023-07-28T12:10:33;2.50;;;0.70;;
18102;SDS011;9178;51.120;6.192;2023-07-28T12:13:04;3.20;;;0.73;;
18102;SDS011;9178;51.120;6.192;2023-07-28T12:15:32;2.72;;;0.60;;
18102;SDS011;9178;51.120;6.192;2023-07-28T12:18:04;1.83;;;0.90;;
18102;SDS011;9178;51.120;6.192;2023-07-28T12:20:37;0.90;;;0.60;;
18102;SDS011;9178;51.120;6.192;2023-07-28T12:23:05;1.50;;;0.65;;
18102;SDS011;9178;51.120;6.192;2023-07-28T12:25:33;1.20;;;0.60;;
18102;SDS011;9178;51.120;6.192;2023-07-28T12:28:01;5.30;;;0.80;;
18102;SDS011;9178;51.120;6.192;2023-07-28T12:30:28;2.50;;;0.60;;
18102;SDS011;9178;51.120;6.192;2023-07-28T12:32:55;0.57;;;0.57;;
18102;SDS011;9178;51.120;6.192;2023-07-28T12:35:24;2.05;;;0.60;;
18102;SDS011;9178;51.120;6.192;2023-07-28T12:37:56;0.82;;;0.40;;
18102;SDS011;9178;51.120;6.192;2023-07-28T12:40:25;0.70;;;0.70;;
18102;SDS011;9178;51.120;6.192;2023-07-28T12:42:53;1.00;;;0.52;;
18102;SDS011;9178;51.120;6.192;2023-07-28T12:45:20;1.50;;;0.60;;
18102;SDS011;9178;51.120;6.192;2023-07-28T12:47:47;4.10;;;0.82;;
18102;SDS011;9178;51.120;6.192;2023-07-28T12:50:14;0.60;;;0.60;;
18102;SDS011;9178;51.120;6.192;2023-07-28T12:52:42;2.35;;;0.73;;
18102;SDS011;9178;51.120;6.192;2023-07-28T12:55:09;0.70;;;0.70;;
18102;SDS011;9178;51.120;6.192;2023-07-28T12:57:36;0.85;;;0.80;;
18102;SDS011;9178;51.120;6.192;2023-07-28T13:00:03;2.78;;;1.05;;
18102;SDS011;9178;51.120;6.192;2023-07-28T13:02:37;0.70;;;0.70;;
18102;SDS011;9178;51.120;6.192;2023-07-28T13:05:05;0.98;;;0.88;;
18102;SDS011;9178;51.120;6.192;2023-07-28T13:07:32;1.05;;;1.00;;
18102;SDS011;9178;51.120;6.192;2023-07-28T13:10:00;1.33;;;1.00;;
18102;SDS011;9178;51.120;6.192;2023-07-28T13:12:28;23.60;;;1.85;;
18102;SDS011;9178;51.120;6.192;2023-07-28T13:14:55;3.53;;;0.90;;
18102;SDS011;9178;51.120;6.192;2023-07-28T13:17:22;1.58;;;0.80;;
18102;SDS011;9178;51.120;6.192;2023-07-28T13:19:49;1.00;;;0.80;;
18102;SDS011;9178;51.120;6.192;2023-07-28T13:22:15;1.20;;;0.57;;
18102;SDS011;9178;51.120;6.192;2023-07-28T13:24:43;1.33;;;0.60;;
18102;SDS011;9178;51.120;6.192;2023-07-28T13:27:11;1.42;;;1.15;;
18102;SDS011;9178;51.120;6.192;2023-07-28T13:29:38;1.50;;;0.50;;
18102;SDS011;9178;51.120;6.192;2023-07-28T13:32:14;1.30;;;0.60;;
18102;SDS011;9178;51.120;6.192;2023-07-28T13:34:42;2.38;;;0.70;;
18102;SDS011;9178;51.120;6.192;2023-07-28T13:37:09;1.55;;;1.10;;
18102;SDS011;9178;51.120;6.192;2023-07-28T13:39:36;1.80;;;1.00;;
18102;SDS011;9178;51.120;6.192;2023-07-28T13:42:03;2.25;;;0.98;;
18102;SDS011;9178;51.120;6.192;2023-07-28T13:44:31;2.25;;;1.17;;
18102;SDS011;9178;51.120;6.192;2023-07-28T13:46:58;2.38;;;1.00;;
18102;SDS011;9178;51.120;6.192;2023-07-28T13:49:25;2.33;;;1.00;;
18102;SDS011;9178;51.120;6.192;2023-07-28T13:51:52;2.08;;;1.30;;
18102;SDS011;9178;51.120;6.192;2023-07-28T13:54:22;1.63;;;1.30;;
18102;SDS011;9178;51.120;6.192;2023-07-28T13:56:49;1.33;;;1.23;;
18102;SDS011;9178;51.120;6.192;2023-07-28T13:59:16;2.60;;;1.30;;
18102;SDS011;9178;51.120;6.192;2023-07-28T14:01:45;1.60;;;1.50;;
18102;SDS011;9178;51.120;6.192;2023-07-28T14:04:12;1.33;;;1.23;;
18102;SDS011;9178;51.120;6.192;2023-07-28T14:06:39;2.53;;;1.27;;
18102;SDS011;9178;51.120;6.192;2023-07-28T14:09:06;1.33;;;1.25;;
18102;SDS011;9178;51.120;6.192;2023-07-28T14:11:33;1.15;;;1.10;;
18102;SDS011;9178;51.120;6.192;2023-07-28T14:14:00;1.23;;;1.20;;
18102;SDS011;9178;51.120;6.192;2023-07-28T14:16:27;2.40;;;1.13;;
18102;SDS011;9178;51.120;6.192;2023-07-28T14:18:56;0.90;;;0.90;;
18102;SDS011;9178;51.120;6.192;2023-07-28T14:21:23;1.00;;;0.90;;
18102;SDS011;9178;51.120;6.192;2023-07-28T14:23:50;1.80;;;1.05;;
18102;SDS011;9178;51.120;6.192;2023-07-28T14:26:17;0.90;;;0.90;;
18102;SDS011;9178;51.120;6.192;2023-07-28T14:28:44;1.85;;;0.80;;
18102;SDS011;9178;51.120;6.192;2023-07-28T14:31:11;0.98;;;0.82;;
18102;SDS011;9178;51.120;6.192;2023-07-28T14:33:38;0.57;;;0.57;;
18102;SDS011;9178;51.120;6.192;2023-07-28T14:36:06;1.23;;;0.68;;
18102;SDS011;9178;51.120;6.192;2023-07-28T14:38:33;1.92;;;0.80;;
18102;SDS011;9178;51.120;6.192;2023-07-28T14:41:00;1.95;;;0.80;;
18102;SDS011;9178;51.120;6.192;2023-07-28T14:43:26;2.25;;;1.20;;
18102;SDS011;9178;51.120;6.192;2023-07-28T14:45:54;1.27;;;0.60;;
18102;SDS011;9178;51.120;6.192;2023-07-28T14:48:21;3.20;;;0.82;;
18102;SDS011;9178;51.120;6.192;2023-07-28T14:50:47;0.93;;;0.80;;
18102;SDS011;9178;51.120;6.192;2023-07-28T14:56:01;0.70;;;0.70;;
18102;SDS011;9178;51.120;6.192;2023-07-28T14:58:32;0.98;;;0.82;;
18102;SDS011;9178;51.120;6.192;2023-07-28T15:00:59;0.77;;;0.70;;
18102;SDS011;9178;51.120;6.192;2023-07-28T15:03:28;0.82;;;0.80;;
18102;SDS011;9178;51.120;6.192;2023-07-28T15:06:01;0.55;;;0.55;;
18102;SDS011;9178;51.120;6.192;2023-07-28T15:08:29;0.88;;;0.70;;